Skip Navigation Links
NOAA logo - Click to go to the NOAA homepage
NOAA's National Weather Service
Alaska Aviation Weather Unit
  NWS logo - Click to go to the NWS homepage
Left Navbar Graphic     10 AKDT = 18 GMT

   
NOAA is celebrating 200 years of science, service, and stewardship. Visit the NOAA 200th celebration Web site to learn more.
USA.gov is the U.S. Government's official Web portal to all Federal, state and local government Web resources and services.
Facebook
NWS on Facebook

Important Change Regarding the AAWU Web Presence

 

Over the last several months, the AAWU has been working to navigate its webpages to a nationally supported server. Security, as well as other needs, have necessitated the change.  We have been given an extension for the site changeover while we diligently work at addressing feedback received. As of July 14, 2017, aawu.arh.noaa.gov will be discontinued. The new AAWU web address is weather.gov/aawu. It is now live and will run in-parallel with the old site until it is discontinued on July 14, 2017. Please continue to send any feedback or questions regarding the new webpages to nws.ar.aawu.webauthors@noaa.gov.  Thank you for your patience during this time of transition.
AAWU Home :: Display TAF Add Bookmark
METAR PABL 261256Z AUTO 32008KT 10SM CLR M04/M04 A3005 RMK AO2
 SLP177 T10391044 FZRANO=

METAR PABL 261356Z AUTO 33006KT 10SM CLR M03/M03 A3005 RMK AO2 SLP177
     T10281033 FZRANO=

METAR PABL 261456Z AUTO 32006KT 10SM CLR M04/M05 A3006 RMK AO2 SLP180
     T10391050 53005 FZRANO=

METAR PABL 261556Z AUTO 31006KT 10SM CLR M04/M05 A3006 RMK AO2 SLP182
     T10391050 FZRANO=

METAR PABL 261656Z AUTO 09003KT 10SM CLR M04/M06 A3006 RMK AO2 SLP183
     T10441056 FZRANO=

SPECI PABL 261746Z AUTO 16004KT 10SM FEW001 M04/M05 A3007 RMK AO2
     FZRANO=

METAR PABL 261756Z AUTO 14003KT 10SM CLR M04/M06 A3007 RMK AO2 SLP185
     T10391056 11028 21050 53005 FZRANO=


NOAA's National Weather Service
Alaska Aviation Weather Unit
6930 Sand Lake Road
Anchorage, AK 99502-1845
Disclaimer
Credits
Glossary
Privacy Policy
About Us
Career Opportunities
Contact AAWU Internet Services Site last modified: April, 17th 2012